WetterOnline ( https://www.wetteronline.de )

Wetter aktuell Hermeskeil

Aktuelles Wetter: Trier/Petrisberg (273m)

6-stündlich | Neueste Meldungen
Ortszeit Temperatur Wetter
Mo, 30.01. 7:00 0.4° C bedeckt
Mo, 30.01. 1:00 -0.5° C gefr. Sprühregen
So, 29.01. 19:00 -1.3° C leicht bewölkt
So, 29.01. 13:00 -1.4° C bewölkt
So, 29.01. 7:00 -2.5° C bewölkt
So, 29.01. 1:00 -1.4° C bewölkt
Sa, 28.01. 19:00 0.0° C bedeckt
Sa, 28.01. 13:00 1.5° C bewölkt
Ortszeit Temperatur Wetter
Mo, 30.01. 9:30 1.0° C Sprühregen
Mo, 30.01. 9:20 1.0° C Sprühregen
Mo, 30.01. 9:10 1.0° C Sprühregen
Mo, 30.01. 9:00 0.9° C Sprühregen
Mo, 30.01. 8:50 0.9° C Sprühregen
Mo, 30.01. 8:40 0.9° C Sprühregen
Mo, 30.01. 8:30 0.8° C leichter Regen
Mo, 30.01. 8:00 0.7° C Regen
Mo, 30.01. 7:30 0.5° C Sprühregen
Mo, 30.01. 7:00 0.4° C bedeckt
Mo, 30.01. 6:30 0.3° C bedeckt
Ortszeit Relative Feuchte Sichtweite
Mo, 30.01. 7:00 95% 7 km
Mo, 30.01. 1:00 87% 8 km
So, 29.01. 19:00 81% 14 km
So, 29.01. 13:00 75% 24 km
So, 29.01. 7:00 81% 35 km
So, 29.01. 1:00 78% 40 km
Sa, 28.01. 19:00 74% 50 km
Sa, 28.01. 13:00 75% 55 km
Ortszeit Relative Feuchte Sichtweite
Mo, 30.01. 9:30 96% 5.0 km
Mo, 30.01. 9:20 96% -
Mo, 30.01. 9:10 97% -
Mo, 30.01. 9:00 97% 2.9 km
Mo, 30.01. 8:50 97% -
Mo, 30.01. 8:40 96% -
Mo, 30.01. 8:30 96% 3.2 km
Mo, 30.01. 8:00 96% 10 km
Mo, 30.01. 7:30 96% 3.8 km
Mo, 30.01. 7:00 95% 7 km
Mo, 30.01. 6:30 94% 9 km
Ortszeit Niederschlagsmenge Niederschlagsart
Mo, 30.01. 7:00 0.1 l/m2 in 12 Std. Regen
Mo, 30.01. 1:00 0.1 l/m2 in 6 Std. Sprühregen
So, 29.01. 19:00 0.0 l/m2 in 12 Std. -
So, 29.01. 13:00 0.0 l/m2 in 6 Std. -
So, 29.01. 7:00 0.0 l/m2 in 12 Std. -
So, 29.01. 1:00 0.0 l/m2 in 6 Std. -
Sa, 28.01. 19:00 0.1 l/m2 in 12 Std. -
Sa, 28.01. 13:00 0.1 l/m2 in 6 Std. Schnee, Regen
Ortszeit Niederschlagsmenge Niederschlagsart
Mo, 30.01. 9:30 <0.05 l/m2 in 30 Min -
Mo, 30.01. 9:20 keine Meldung -
Mo, 30.01. 9:10 keine Meldung -
Mo, 30.01. 9:00 <0.05 l/m2 in 1 Std. Regen
Mo, 30.01. 8:50 keine Meldung -
Mo, 30.01. 8:40 keine Meldung -
Mo, 30.01. 8:30 <0.05 l/m2 in 30 Min -
Mo, 30.01. 8:00 <0.05 l/m2 in 1 Std. Regen
Mo, 30.01. 7:30 <0.05 l/m2 in 30 Min -
Mo, 30.01. 7:00 0.0 l/m2 in 1 Std. Regen
Mo, 30.01. 6:30 0.0 l/m2 in 30 Min -
Ortszeit Stärke Spitze Richtung
km/h Bft. km/h Grad Sektor
Mo, 30.01. 7:00 24 4 43 210° SW
Mo, 30.01. 1:00 18 3 36 230° SW
So, 29.01. 19:00 11 2 25 250° W
So, 29.01. 13:00 9 2 19 240° SW
So, 29.01. 7:00 7 2 14 170° S
So, 29.01. 1:00 7 2 25 60° NO
Sa, 28.01. 19:00 7 2 29 40° NO
Sa, 28.01. 13:00 17 3 33 30° NO
Ortszeit Stärke Spitze Richtung
km/h Bft. km/h Grad Sektor
Mo, 30.01. 9:30 25 4 36 210° SW
Mo, 30.01. 9:20 25 4 - 210° SW
Mo, 30.01. 9:10 24 4 - 220° SW
Mo, 30.01. 9:00 25 4 40 210° SW
Mo, 30.01. 8:50 25 4 - 210° SW
Mo, 30.01. 8:40 24 4 - 210° SW
Mo, 30.01. 8:30 25 4 40 220° SW
Mo, 30.01. 8:00 28 4 44 220° SW
Mo, 30.01. 7:30 25 4 40 220° SW
Mo, 30.01. 7:00 24 4 41 210° SW
Mo, 30.01. 6:30 28 4 41 220° SW
Ortszeit Untergrenze Bedeckung Gattung
total tief tief mittel hoch
Mo, 30.01. 7:00 150 m 8/8 8/8 - - -
Mo, 30.01. 1:00 270 m 8/8 8/8 - - -
So, 29.01. 19:00 630 m 2/8 2/8 - - -
So, 29.01. 13:00 450 m 7/8 6/8 - - -
So, 29.01. 7:00 420 m 7/8 7/8 - - -
So, 29.01. 1:00 480 m 7/8 7/8 - - -
Sa, 28.01. 19:00 630 m 8/8 8/8 - - -
Sa, 28.01. 13:00 660 m 7/8 7/8 - - -
Ortszeit Bedeckungsgrad in Achtel und Wolkenuntergrenze
Mo, 30.01. 9:30 8(120m)
Mo, 30.01. 9:20 8(120m)
Mo, 30.01. 9:10 8
Mo, 30.01. 9:00 8(120m)
Mo, 30.01. 8:50 8(120m)
Mo, 30.01. 8:40 8
Mo, 30.01. 8:30 8(120m)
Mo, 30.01. 8:00 8(120m)
Mo, 30.01. 7:30 8(120m)
Mo, 30.01. 7:00 8(150m)
Mo, 30.01. 6:30 8(150m)
Ortszeit Luftdruck NN (hPa) Tendenz (hPa in 3 Std.)
Mo, 30.01. 7:00 1022 - 1,6
Mo, 30.01. 1:00 1026 - 1,0
So, 29.01. 19:00 1029 + 0,4
So, 29.01. 13:00 1030 - 1,4
So, 29.01. 7:00 1031 - 0,4
So, 29.01. 1:00 1031 - 0,3
Sa, 28.01. 19:00 1030 + 0,5
Sa, 28.01. 13:00 1029 + 0,7
Ortszeit Luftdruck NN (hPa) Tendenz (hPa in 3 Std.)
Mo, 30.01. 9:30 1022 0,0
Mo, 30.01. 9:20 1022 keine Meldung
Mo, 30.01. 9:10 1022 keine Meldung
Mo, 30.01. 9:00 1023 0,0
Mo, 30.01. 8:50 1023 keine Meldung
Mo, 30.01. 8:40 1023 keine Meldung
Mo, 30.01. 8:30 1023 - 0,3
Mo, 30.01. 8:00 1022 - 1,3
Mo, 30.01. 7:30 1022 - 1,5
Mo, 30.01. 7:00 1022 - 1,6
Mo, 30.01. 6:30 1022 - 1,5
Ortszeit Schneehöhe (cm)
Mo, 30.01. 7:00 0
Mo, 30.01. 1:00 0
So, 29.01. 19:00 0
So, 29.01. 13:00 0
So, 29.01. 7:00 0
So, 29.01. 1:00 0
Sa, 28.01. 19:00 0
Sa, 28.01. 13:00 0
Ortszeit Schneehöhe (cm)
Mo, 30.01. 9:30 0
Mo, 30.01. 9:20 0
Mo, 30.01. 9:10 0
Mo, 30.01. 9:00 0
Mo, 30.01. 8:50 0
Mo, 30.01. 8:40 0
Mo, 30.01. 8:30 0
Mo, 30.01. 8:00 0
Mo, 30.01. 7:30 0
Mo, 30.01. 7:00 0
Mo, 30.01. 6:30 0
Link zu dieser Seite / Seite empfehlen

Das Wetter in ...